createdAt,value
2023-03-10T00:01:29.458Z,11.27
2023-03-10T00:04:02.855Z,11.43
2023-03-10T00:06:36.628Z,11.26
2023-03-10T00:09:09.505Z,11.21
2023-03-10T00:11:42.238Z,11.02
2023-03-10T00:14:15.221Z,11.05
2023-03-10T00:16:48.357Z,11.16
2023-03-10T00:19:21.145Z,11.06
2023-03-10T00:21:53.685Z,11.05
2023-03-10T00:24:26.465Z,11.18
2023-03-10T00:26:59.067Z,11.23
2023-03-10T00:29:33.464Z,11.24
2023-03-10T00:32:07.643Z,11.26
2023-03-10T00:34:41.292Z,11.43
2023-03-10T00:37:13.651Z,11.56
2023-03-10T00:39:50.787Z,11.74
2023-03-10T00:42:23.928Z,11.88
2023-03-10T00:44:57.504Z,11.82
2023-03-10T00:47:29.814Z,11.84
2023-03-10T00:50:02.289Z,11.72
2023-03-10T00:52:35.258Z,11.68
2023-03-10T00:55:08.002Z,11.40
2023-03-10T00:57:39.911Z,11.15
2023-03-10T01:00:16.408Z,11.06
2023-03-10T01:02:48.319Z,10.96
2023-03-10T01:05:21.643Z,10.95
2023-03-10T01:07:53.958Z,10.95
2023-03-10T01:10:27.225Z,10.72
2023-03-10T01:12:59.135Z,10.69
2023-03-10T01:15:32.437Z,10.75
2023-03-10T01:18:05.570Z,10.80
2023-03-10T01:20:38.051Z,10.55
2023-03-10T01:23:23.285Z,10.63
2023-03-10T01:25:55.338Z,10.64
2023-03-10T01:28:28.114Z,10.74
2023-03-10T01:31:01.558Z,10.85
2023-03-10T01:33:40.048Z,10.96
2023-03-10T01:36:19.517Z,11.00
2023-03-10T01:39:13.896Z,11.20
2023-03-10T01:41:45.847Z,11.17
2023-03-10T01:44:21.652Z,11.13
2023-03-10T01:46:56.652Z,11.22
2023-03-10T01:49:45.025Z,11.18
2023-03-10T01:52:24.970Z,11.42
2023-03-10T01:55:20.862Z,11.45
2023-03-10T01:57:56.631Z,11.54
2023-03-10T02:00:29.994Z,11.58
2023-03-10T02:03:24.978Z,11.58
2023-03-10T02:06:21.642Z,11.52
2023-03-10T02:09:01.405Z,11.58
2023-03-10T02:11:34.707Z,11.58
2023-03-10T02:14:07.478Z,11.51
2023-03-10T02:16:39.735Z,11.55
2023-03-10T02:19:28.133Z,11.55
2023-03-10T02:22:11.714Z,11.51
2023-03-10T02:25:10.403Z,11.56
2023-03-10T02:30:45.143Z,11.62
2023-03-10T02:33:24.063Z,11.64
2023-03-10T02:36:16.218Z,11.80
2023-03-10T02:38:50.179Z,11.75
2023-03-10T02:41:35.235Z,11.71
2023-03-10T02:44:13.764Z,11.69
2023-03-10T02:46:46.707Z,11.77
2023-03-10T02:49:21.980Z,11.63
2023-03-10T02:51:56.081Z,11.66
2023-03-10T02:54:28.367Z,11.76
2023-03-10T02:57:00.981Z,11.83
2023-03-10T02:59:33.563Z,11.96
2023-03-10T03:02:05.694Z,11.94
2023-03-10T03:04:38.285Z,11.90
2023-03-10T03:07:10.946Z,11.97
2023-03-10T03:09:45.085Z,11.95
2023-03-10T03:12:17.365Z,11.95
2023-03-10T03:14:49.922Z,12.03
2023-03-10T03:17:22.172Z,11.83
2023-03-10T03:19:54.932Z,11.84
2023-03-10T03:22:27.783Z,11.83
2023-03-10T03:25:00.599Z,11.87
2023-03-10T03:27:32.519Z,11.86
2023-03-10T03:30:10.224Z,11.95
2023-03-10T03:32:43.876Z,11.99
2023-03-10T03:35:24.913Z,11.82
2023-03-10T03:37:57.341Z,11.94
2023-03-10T03:40:34.412Z,11.88
2023-03-10T03:43:07.812Z,11.92
2023-03-10T03:45:40.838Z,11.95
2023-03-10T03:48:14.740Z,11.92
2023-03-10T03:50:50.802Z,11.79
2023-03-10T03:53:30.621Z,11.94
2023-03-10T03:56:03.192Z,12.03
2023-03-10T03:58:38.778Z,12.00
2023-03-10T04:01:10.955Z,12.09
2023-03-10T04:03:48.843Z,12.01
2023-03-10T04:06:23.172Z,12.11
2023-03-10T04:08:56.627Z,12.31
2023-03-10T04:11:31.122Z,12.41
2023-03-10T04:14:04.104Z,12.45
2023-03-10T04:16:36.544Z,12.33
2023-03-10T04:19:10.751Z,12.39
2023-03-10T04:21:47.368Z,12.28
2023-03-10T04:24:19.991Z,11.97
2023-03-10T04:26:52.310Z,11.65
2023-03-10T04:29:25.347Z,11.20
2023-03-10T04:32:05.509Z,10.86
2023-03-10T04:34:43.430Z,10.62
2023-03-10T04:37:16.283Z,10.41
2023-03-10T04:39:49.228Z,10.52
2023-03-10T04:42:21.731Z,10.40
2023-03-10T04:44:54.421Z,10.43
2023-03-10T04:47:27.184Z,10.36
2023-03-10T04:49:59.941Z,10.27
2023-03-10T04:52:31.923Z,10.33
2023-03-10T04:55:05.605Z,10.32
2023-03-10T04:57:37.642Z,10.71
2023-03-10T05:00:13.114Z,10.89
2023-03-10T05:02:46.235Z,11.02
2023-03-10T05:05:19.220Z,11.21
2023-03-10T05:07:52.855Z,11.15
2023-03-10T05:10:25.477Z,11.43
2023-03-10T05:12:57.785Z,11.26
2023-03-10T05:15:30.149Z,11.50
2023-03-10T05:18:03.049Z,11.68
2023-03-10T05:20:35.295Z,11.63
2023-03-10T05:23:07.842Z,12.06
2023-03-10T05:25:40.399Z,12.03
2023-03-10T05:28:13.655Z,12.17
2023-03-10T05:30:46.362Z,11.93
2023-03-10T05:33:19.300Z,12.17
2023-03-10T05:35:51.328Z,12.15
2023-03-10T05:38:24.092Z,12.24
2023-03-10T05:40:56.496Z,12.09
2023-03-10T05:43:29.230Z,12.01
2023-03-10T05:46:01.489Z,12.03
2023-03-10T05:48:37.816Z,12.10
2023-03-10T05:51:12.809Z,12.04
2023-03-10T05:53:45.934Z,11.93
2023-03-10T05:56:22.247Z,12.08
2023-03-10T05:58:59.268Z,12.01
2023-03-10T06:01:37.292Z,12.01
2023-03-10T06:04:10.077Z,11.99
2023-03-10T06:06:42.002Z,11.92
2023-03-10T06:09:14.578Z,11.95
2023-03-10T06:11:46.497Z,11.92
2023-03-10T06:14:19.574Z,12.12
2023-03-10T06:16:54.192Z,12.07
2023-03-10T06:19:27.743Z,12.13
2023-03-10T06:22:00.031Z,12.23
2023-03-10T06:24:32.994Z,12.33
2023-03-10T06:27:05.349Z,12.34
2023-03-10T06:29:37.696Z,12.33
2023-03-10T06:32:10.134Z,12.42
2023-03-10T06:34:42.771Z,12.31
2023-03-10T06:37:14.726Z,12.01
2023-03-10T06:39:47.255Z,11.45
2023-03-10T06:42:19.904Z,11.13
2023-03-10T06:44:55.255Z,10.49
2023-03-10T06:47:28.298Z,10.20
2023-03-10T06:50:01.752Z,10.08
2023-03-10T06:52:35.274Z,9.88
2023-03-10T06:55:07.701Z,9.75
2023-03-10T06:57:40.674Z,9.62
2023-03-10T07:00:15.726Z,9.58
2023-03-10T07:02:48.260Z,9.51
2023-03-10T07:05:22.984Z,9.56
2023-03-10T07:07:55.956Z,9.47
2023-03-10T07:10:28.260Z,9.60
2023-03-10T07:13:03.173Z,9.75
2023-03-10T07:15:38.194Z,9.74
2023-03-10T07:18:13.301Z,9.71
2023-03-10T07:20:46.226Z,9.90
2023-03-10T07:23:18.905Z,10.03
2023-03-10T07:25:56.663Z,10.15
2023-03-10T07:28:29.265Z,9.97
2023-03-10T07:31:10.290Z,10.26
2023-03-10T07:33:43.171Z,10.24
2023-03-10T07:36:17.804Z,10.13
2023-03-10T07:38:50.840Z,10.24
2023-03-10T07:41:23.303Z,10.32
2023-03-10T07:43:56.003Z,10.31
2023-03-10T07:46:28.746Z,10.40
2023-03-10T07:49:04.546Z,10.47
2023-03-10T07:51:38.253Z,10.42
2023-03-10T07:54:13.101Z,10.64
2023-03-10T07:56:45.681Z,10.55
2023-03-10T07:59:17.728Z,10.61
2023-03-10T08:01:50.717Z,10.59
2023-03-10T08:04:23.187Z,10.58
2023-03-10T08:06:55.964Z,10.55
2023-03-10T08:09:29.612Z,10.66
2023-03-10T08:12:03.562Z,10.72
2023-03-10T08:14:35.624Z,10.52
2023-03-10T08:17:08.612Z,10.55
2023-03-10T08:19:40.720Z,10.55
2023-03-10T08:22:13.216Z,10.36
2023-03-10T08:24:45.127Z,10.22
2023-03-10T08:27:17.782Z,10.21
2023-03-10T08:29:49.785Z,10.05
2023-03-10T08:32:22.475Z,9.88
2023-03-10T08:34:54.414Z,9.92
2023-03-10T08:37:27.472Z,9.92
2023-03-10T08:40:00.178Z,10.12
2023-03-10T08:42:32.447Z,10.07
2023-03-10T08:45:08.386Z,10.10
2023-03-10T08:47:41.379Z,10.05
2023-03-10T08:50:13.781Z,10.26
2023-03-10T08:52:46.634Z,10.32
2023-03-10T08:55:18.517Z,10.33
2023-03-10T08:57:51.170Z,10.30
2023-03-10T09:00:24.054Z,10.36
2023-03-10T09:02:57.468Z,10.39
2023-03-10T09:05:30.030Z,10.48
2023-03-10T09:08:02.679Z,10.50
2023-03-10T09:10:36.324Z,10.50
2023-03-10T09:13:14.174Z,10.78
2023-03-10T09:15:46.399Z,10.69
2023-03-10T09:18:20.875Z,10.73
2023-03-10T09:20:53.157Z,10.81
2023-03-10T09:23:25.879Z,10.81
2023-03-10T09:25:57.860Z,10.79
2023-03-10T09:28:30.917Z,10.87
2023-03-10T09:31:06.059Z,10.90
2023-03-10T09:33:38.380Z,10.77
2023-03-10T09:36:11.287Z,10.69
2023-03-10T09:38:43.721Z,10.82
2023-03-10T09:41:59.783Z,10.88
2023-03-10T09:45:07.761Z,10.85
2023-03-10T09:47:52.224Z,10.97
2023-03-10T09:50:43.054Z,10.84
2023-03-10T09:53:55.750Z,10.92
2023-03-10T09:56:37.634Z,10.81
2023-03-10T09:59:28.259Z,10.93
2023-03-10T10:02:02.262Z,10.84
2023-03-10T10:04:41.759Z,10.90
2023-03-10T10:07:22.798Z,10.88
2023-03-10T10:10:02.178Z,10.81
2023-03-10T10:12:37.774Z,10.71
2023-03-10T10:15:25.172Z,10.65
2023-03-10T10:18:24.055Z,10.67
2023-03-10T10:21:10.525Z,10.62
2023-03-10T10:23:54.519Z,10.54
2023-03-10T10:26:28.209Z,10.42
2023-03-10T10:29:16.990Z,10.67
2023-03-10T10:32:07.986Z,10.63
2023-03-10T10:34:43.552Z,10.56
2023-03-10T10:37:39.575Z,10.54
2023-03-10T10:40:28.706Z,10.39
2023-03-10T10:43:06.537Z,10.38
2023-03-10T10:45:41.035Z,10.24
2023-03-10T10:48:37.553Z,10.35
2023-03-10T10:51:29.446Z,10.38
2023-03-10T10:54:28.902Z,10.30
2023-03-10T10:57:04.743Z,9.99
2023-03-10T10:59:37.080Z,10.40
2023-03-10T11:02:34.360Z,10.41
2023-03-10T11:05:18.000Z,10.39
2023-03-10T11:07:51.070Z,10.35
2023-03-10T11:10:32.785Z,10.26
2023-03-10T11:13:14.115Z,10.39
2023-03-10T11:16:23.375Z,10.33
2023-03-10T11:19:09.171Z,10.22
2023-03-10T11:21:46.331Z,10.34
2023-03-10T11:24:28.487Z,10.14
2023-03-10T11:30:29.699Z,10.25
2023-03-10T11:33:25.589Z,10.22
2023-03-10T11:36:06.722Z,10.28
2023-03-10T11:38:44.012Z,10.12
2023-03-10T11:41:23.670Z,10.18
2023-03-10T11:44:04.277Z,10.22
2023-03-10T11:46:58.302Z,10.16
2023-03-10T11:49:42.299Z,10.22
2023-03-10T11:52:22.130Z,10.13
2023-03-10T11:55:06.360Z,9.98
2023-03-10T11:57:46.630Z,9.95
2023-03-10T12:00:29.572Z,9.63
2023-03-10T12:03:07.198Z,9.56
2023-03-10T12:05:58.964Z,9.53
2023-03-10T12:08:36.559Z,9.56
2023-03-10T12:11:17.278Z,9.49
2023-03-10T12:13:55.469Z,9.52
2023-03-10T12:16:33.783Z,9.45
2023-03-10T12:19:07.724Z,9.55
2023-03-10T12:21:40.028Z,9.63
2023-03-10T12:24:43.430Z,9.68
2023-03-10T12:27:15.389Z,9.57
2023-03-10T12:29:48.612Z,9.56
2023-03-10T12:32:44.121Z,9.53
2023-03-10T12:35:37.252Z,9.50
2023-03-10T12:38:39.815Z,9.63
2023-03-10T12:41:33.080Z,9.76
2023-03-10T12:47:59.257Z,9.89
2023-03-10T12:50:48.717Z,9.93
2023-03-10T12:53:37.546Z,10.22
2023-03-10T12:56:12.866Z,10.19
2023-03-10T12:58:57.026Z,10.21
2023-03-10T13:01:55.861Z,10.11
2023-03-10T13:04:28.447Z,10.03
2023-03-10T13:07:04.338Z,10.11
2023-03-10T13:09:43.517Z,10.04
2023-03-10T13:12:48.672Z,10.07
2023-03-10T13:15:31.798Z,10.16
2023-03-10T13:18:31.283Z,10.03
2023-03-10T13:21:03.669Z,10.17
2023-03-10T13:23:38.449Z,10.05
2023-03-10T13:26:16.855Z,10.21
2023-03-10T13:28:57.542Z,10.31
2023-03-10T13:31:34.699Z,10.20
2023-03-10T13:34:21.170Z,10.29
2023-03-10T13:36:53.524Z,10.01
2023-03-10T13:39:28.211Z,10.35
2023-03-10T13:42:03.672Z,10.24
2023-03-10T13:44:41.850Z,10.41
2023-03-10T13:47:23.776Z,10.27
2023-03-10T13:50:02.744Z,10.15
2023-03-10T13:52:36.486Z,10.02
2023-03-10T13:55:17.274Z,10.03
2023-03-10T13:57:51.347Z,10.03
2023-03-10T14:00:26.548Z,10.16
2023-03-10T14:03:21.380Z,10.09
2023-03-10T14:06:12.016Z,9.83
2023-03-10T14:08:43.912Z,9.80
2023-03-10T14:11:47.400Z,9.89
2023-03-10T14:14:35.626Z,9.98
2023-03-10T14:20:46.314Z,10.03
2023-03-10T14:23:19.335Z,10.06
2023-03-10T14:25:56.290Z,9.95
2023-03-10T14:28:29.488Z,9.99
2023-03-10T14:31:02.622Z,9.88
2023-03-10T14:33:37.238Z,9.68
2023-03-10T14:36:12.120Z,9.91
2023-03-10T14:38:46.393Z,10.00
2023-03-10T14:41:22.948Z,10.07
2023-03-10T14:43:55.726Z,10.13
2023-03-10T14:46:30.079Z,10.01
2023-03-10T14:49:07.468Z,9.67
2023-03-10T14:51:39.491Z,9.56
2023-03-10T14:54:22.002Z,9.87
2023-03-10T14:57:01.438Z,10.10
2023-03-10T14:59:34.966Z,10.17
2023-03-10T15:02:21.491Z,10.13
2023-03-10T15:04:53.545Z,10.22
2023-03-10T15:07:26.271Z,10.08
2023-03-10T15:10:10.561Z,9.95
2023-03-10T15:12:44.974Z,9.97
2023-03-10T15:15:21.198Z,9.80
2023-03-10T15:17:55.002Z,9.76
2023-03-10T15:20:27.498Z,9.71
2023-03-10T15:23:00.354Z,9.71
2023-03-10T15:25:32.686Z,9.76
2023-03-10T15:28:06.119Z,9.77
2023-03-10T15:30:40.685Z,9.66
2023-03-10T15:33:13.062Z,9.55
2023-03-10T15:35:45.918Z,9.26
2023-03-10T15:38:18.224Z,9.17
2023-03-10T15:40:51.465Z,8.97
2023-03-10T15:43:23.772Z,9.06
2023-03-10T15:45:56.979Z,8.89
2023-03-10T15:48:29.073Z,8.46
2023-03-10T15:51:02.393Z,8.08
2023-03-10T15:53:36.833Z,7.88
2023-03-10T15:56:11.379Z,7.74
2023-03-10T15:58:44.026Z,7.47
2023-03-10T16:01:20.096Z,7.60
2023-03-10T16:03:52.413Z,7.66
2023-03-10T16:06:27.574Z,7.63
2023-03-10T16:08:59.941Z,7.76
2023-03-10T16:11:32.999Z,7.75
2023-03-10T16:14:05.184Z,7.89
2023-03-10T16:16:38.110Z,8.03
2023-03-10T16:19:10.074Z,8.03
2023-03-10T16:21:43.556Z,8.07
2023-03-10T16:24:15.425Z,8.07
2023-03-10T16:26:49.337Z,8.18
2023-03-10T16:29:21.775Z,8.23
2023-03-10T16:31:54.812Z,8.47
2023-03-10T16:34:26.983Z,8.40
2023-03-10T16:37:00.443Z,8.58
2023-03-10T16:39:32.715Z,8.63
2023-03-10T16:42:05.956Z,8.74
2023-03-10T16:44:39.342Z,8.87
2023-03-10T16:47:12.873Z,8.95
2023-03-10T16:49:45.297Z,8.93
2023-03-10T16:52:17.575Z,8.92
2023-03-10T16:54:50.714Z,8.66
2023-03-10T16:57:22.975Z,8.40
2023-03-10T16:59:55.768Z,8.19
2023-03-10T17:02:28.454Z,8.20
2023-03-10T17:05:00.812Z,8.09
2023-03-10T17:07:34.810Z,7.95
2023-03-10T17:10:11.167Z,8.12
2023-03-10T17:12:43.768Z,8.14
2023-03-10T17:15:16.911Z,8.22
2023-03-10T17:17:48.837Z,7.98
2023-03-10T17:20:21.898Z,7.72
2023-03-10T17:22:54.153Z,7.60
2023-03-10T17:25:27.269Z,7.54
2023-03-10T17:28:00.758Z,7.52
2023-03-10T17:30:32.663Z,7.29
2023-03-10T17:33:05.772Z,7.47
2023-03-10T17:35:38.552Z,7.40
2023-03-10T17:38:10.934Z,7.33
2023-03-10T17:40:43.568Z,7.50
2023-03-10T17:43:32.898Z,7.54
2023-03-10T17:46:18.842Z,7.66
2023-03-10T17:48:52.080Z,7.74
2023-03-10T17:51:30.640Z,7.73
2023-03-10T17:54:03.904Z,7.51
2023-03-10T17:56:35.854Z,7.53
2023-03-10T17:59:13.002Z,7.66
2023-03-10T18:01:46.081Z,7.60
2023-03-10T18:04:18.959Z,7.77
2023-03-10T18:06:51.636Z,7.85
2023-03-10T18:09:23.898Z,7.98
2023-03-10T18:11:57.878Z,8.04
2023-03-10T18:14:30.184Z,8.58
2023-03-10T18:17:03.511Z,8.46
2023-03-10T18:19:35.765Z,8.53
2023-03-10T18:22:08.716Z,8.51
2023-03-10T18:24:40.621Z,8.49
2023-03-10T18:27:13.939Z,8.31
2023-03-10T18:29:46.269Z,8.24
2023-03-10T18:32:19.330Z,8.24
2023-03-10T18:34:51.798Z,8.13
2023-03-10T18:37:24.390Z,8.11
2023-03-10T18:39:59.721Z,8.00
2023-03-10T18:42:31.958Z,8.12
2023-03-10T18:45:05.156Z,7.97
2023-03-10T18:47:37.395Z,7.86
2023-03-10T18:50:10.448Z,7.81
2023-03-10T18:52:43.539Z,7.62
2023-03-10T18:55:15.398Z,7.49
2023-03-10T18:57:47.940Z,7.43
2023-03-10T19:00:21.370Z,7.46
2023-03-10T19:02:54.685Z,7.34
2023-03-10T19:05:27.944Z,7.26
2023-03-10T19:08:00.975Z,7.30
2023-03-10T19:10:32.996Z,7.27
2023-03-10T19:13:05.793Z,7.08
2023-03-10T19:15:38.063Z,7.07
2023-03-10T19:18:10.606Z,7.05
2023-03-10T19:20:43.711Z,7.08
2023-03-10T19:23:17.080Z,7.13
2023-03-10T19:25:49.394Z,7.14
2023-03-10T19:28:22.389Z,7.13
2023-03-10T19:30:54.323Z,7.06
2023-03-10T19:33:27.085Z,7.04
2023-03-10T19:36:04.738Z,7.02
2023-03-10T19:38:38.827Z,7.03
2023-03-10T19:41:14.696Z,7.05
2023-03-10T19:43:49.110Z,7.05
2023-03-10T19:46:21.037Z,7.14
2023-03-10T19:48:53.612Z,7.20
2023-03-10T19:51:28.441Z,7.25
2023-03-10T19:54:03.263Z,7.31
2023-03-10T19:56:35.332Z,8.78
2023-03-10T19:59:08.961Z,9.01
2023-03-10T20:01:42.137Z,7.70
2023-03-10T20:04:15.304Z,7.36
2023-03-10T20:06:47.160Z,7.24
2023-03-10T20:09:19.777Z,7.24
2023-03-10T20:11:52.796Z,7.20
2023-03-10T20:14:26.211Z,7.21
2023-03-10T20:16:58.187Z,7.14
2023-03-10T20:19:30.826Z,7.16
2023-03-10T20:22:02.769Z,7.21
2023-03-10T20:24:35.975Z,7.18
2023-03-10T20:27:08.352Z,7.19
2023-03-10T20:29:42.033Z,7.20
2023-03-10T20:32:14.559Z,7.23
2023-03-10T20:34:47.117Z,7.24
2023-03-10T20:37:19.016Z,7.22
2023-03-10T20:39:51.251Z,7.20
2023-03-10T20:42:23.143Z,7.24
2023-03-10T20:44:55.690Z,7.20
2023-03-10T20:47:27.627Z,7.15
2023-03-10T20:50:00.807Z,7.17
2023-03-10T20:52:44.890Z,7.17
2023-03-10T20:55:26.529Z,7.13
2023-03-10T20:58:01.288Z,7.13
2023-03-10T21:00:33.212Z,7.15
2023-03-10T21:03:05.734Z,7.15
2023-03-10T21:05:37.634Z,7.12
2023-03-10T21:08:10.303Z,7.12
2023-03-10T21:10:44.414Z,7.06
2023-03-10T21:13:17.044Z,7.06
2023-03-10T21:15:48.993Z,7.02
2023-03-10T21:18:21.632Z,7.00
2023-03-10T21:20:53.576Z,6.99
2023-03-10T21:23:26.198Z,7.01
2023-03-10T21:25:58.304Z,6.90
2023-03-10T21:28:30.975Z,6.91
2023-03-10T21:31:02.953Z,6.89
2023-03-10T21:33:35.918Z,6.84
2023-03-10T21:36:12.663Z,6.88
2023-03-10T21:38:49.033Z,6.87
2023-03-10T21:41:28.383Z,6.86
2023-03-10T21:44:01.691Z,6.85
2023-03-10T21:46:33.753Z,6.83
2023-03-10T21:49:06.425Z,6.83
2023-03-10T21:51:38.306Z,6.77
2023-03-10T21:54:10.955Z,6.79
2023-03-10T21:56:42.890Z,6.76
2023-03-10T21:59:16.931Z,6.70
2023-03-10T22:01:48.830Z,6.72
2023-03-10T22:04:21.473Z,6.78
2023-03-10T22:06:53.331Z,6.45
2023-03-10T22:09:26.294Z,6.24
2023-03-10T22:11:58.554Z,6.06
2023-03-10T22:14:30.788Z,6.03
2023-03-10T22:17:02.787Z,5.94
2023-03-10T22:19:35.541Z,5.81
2023-03-10T22:22:07.710Z,5.69
2023-03-10T22:24:41.480Z,5.62
2023-03-10T22:27:13.653Z,5.61
2023-03-10T22:29:46.788Z,5.57
2023-03-10T22:32:19.104Z,5.56
2023-03-10T22:34:51.658Z,5.51
2023-03-10T22:37:23.860Z,5.53
2023-03-10T22:39:55.757Z,5.52
2023-03-10T22:42:28.345Z,5.52
2023-03-10T22:45:01.088Z,5.48
2023-03-10T22:47:33.986Z,5.48
2023-03-10T22:50:06.391Z,5.56
2023-03-10T22:52:38.938Z,5.59
2023-03-10T22:55:16.773Z,5.61
2023-03-10T22:57:49.803Z,5.64
2023-03-10T23:00:23.103Z,5.69
2023-03-10T23:02:55.670Z,5.70
2023-03-10T23:05:28.298Z,5.63
2023-03-10T23:08:00.886Z,5.52
2023-03-10T23:10:35.756Z,5.62
2023-03-10T23:13:13.507Z,5.57
2023-03-10T23:15:45.822Z,5.60
2023-03-10T23:18:20.001Z,5.59
2023-03-10T23:20:52.983Z,5.54
2023-03-10T23:23:25.925Z,5.46
2023-03-10T23:25:58.440Z,5.45
2023-03-10T23:28:31.399Z,5.41
2023-03-10T23:31:03.369Z,5.41
2023-03-10T23:33:35.948Z,5.29
2023-03-10T23:36:08.221Z,5.43
2023-03-10T23:38:42.104Z,5.43
2023-03-10T23:41:13.970Z,5.40
2023-03-10T23:43:46.615Z,5.37
2023-03-10T23:46:19.230Z,5.35
2023-03-10T23:48:52.528Z,5.35
2023-03-10T23:51:24.896Z,5.32
2023-03-10T23:53:56.785Z,5.23
2023-03-10T23:56:29.757Z,5.29
2023-03-10T23:59:01.592Z,5.21
